sensor_id;sensor_type;location;lat;lon;timestamp;P1;durP1;ratioP1;P2;durP2;ratioP2
16101;SDS011;56411;52.964;10.540;2023-02-22T00:01:08;92.57;;;28.30;;
16101;SDS011;56411;52.964;10.540;2023-02-22T00:03:46;102.37;;;30.73;;
16101;SDS011;56411;52.964;10.540;2023-02-22T00:06:15;114.23;;;30.73;;
16101;SDS011;56411;52.964;10.540;2023-02-22T00:08:46;89.10;;;26.40;;
16101;SDS011;56411;52.964;10.540;2023-02-22T00:11:14;113.10;;;32.50;;
16101;SDS011;56411;52.964;10.540;2023-02-22T00:13:41;107.53;;;32.67;;
16101;SDS011;56411;52.964;10.540;2023-02-22T00:16:12;102.73;;;32.70;;
16101;SDS011;56411;52.964;10.540;2023-02-22T00:18:40;120.40;;;32.00;;
16101;SDS011;56411;52.964;10.540;2023-02-22T00:21:08;103.97;;;31.07;;
16101;SDS011;56411;52.964;10.540;2023-02-22T00:23:38;102.07;;;30.27;;
16101;SDS011;56411;52.964;10.540;2023-02-22T00:26:12;92.10;;;29.07;;
16101;SDS011;56411;52.964;10.540;2023-02-22T00:28:42;90.87;;;29.07;;
16101;SDS011;56411;52.964;10.540;2023-02-22T00:31:10;93.83;;;28.47;;
16101;SDS011;56411;52.964;10.540;2023-02-22T00:33:39;84.87;;;27.47;;
16101;SDS011;56411;52.964;10.540;2023-02-22T00:36:07;80.10;;;26.97;;
16101;SDS011;56411;52.964;10.540;2023-02-22T00:38:35;77.10;;;26.20;;
16101;SDS011;56411;52.964;10.540;2023-02-22T00:41:03;76.00;;;25.20;;
16101;SDS011;56411;52.964;10.540;2023-02-22T00:43:32;66.20;;;23.67;;
16101;SDS011;56411;52.964;10.540;2023-02-22T00:45:59;62.20;;;22.63;;
16101;SDS011;56411;52.964;10.540;2023-02-22T00:48:26;70.17;;;23.47;;
16101;SDS011;56411;52.964;10.540;2023-02-22T00:50:53;65.67;;;21.77;;
16101;SDS011;56411;52.964;10.540;2023-02-22T00:53:20;60.63;;;22.37;;
16101;SDS011;56411;52.964;10.540;2023-02-22T00:55:49;63.90;;;21.90;;
16101;SDS011;56411;52.964;10.540;2023-02-22T00:58:16;66.93;;;23.03;;
16101;SDS011;56411;52.964;10.540;2023-02-22T01:00:45;64.67;;;23.00;;
16101;SDS011;56411;52.964;10.540;2023-02-22T01:03:13;56.60;;;21.23;;
16101;SDS011;56411;52.964;10.540;2023-02-22T01:05:42;58.43;;;21.13;;
16101;SDS011;56411;52.964;10.540;2023-02-22T01:08:10;48.93;;;19.80;;
16101;SDS011;56411;52.964;10.540;2023-02-22T01:10:39;50.20;;;19.67;;
16101;SDS011;56411;52.964;10.540;2023-02-22T01:13:07;48.37;;;19.37;;
16101;SDS011;56411;52.964;10.540;2023-02-22T01:15:37;84.93;;;22.60;;
16101;SDS011;56411;52.964;10.540;2023-02-22T01:18:06;60.23;;;21.63;;
16101;SDS011;56411;52.964;10.540;2023-02-22T01:20:34;51.70;;;21.70;;
16101;SDS011;56411;52.964;10.540;2023-02-22T01:23:02;54.37;;;21.83;;
16101;SDS011;56411;52.964;10.540;2023-02-22T01:25:32;53.47;;;19.97;;
16101;SDS011;56411;52.964;10.540;2023-02-22T01:28:02;59.03;;;20.93;;
16101;SDS011;56411;52.964;10.540;2023-02-22T01:30:31;59.77;;;22.03;;
16101;SDS011;56411;52.964;10.540;2023-02-22T01:33:00;64.13;;;21.47;;
16101;SDS011;56411;52.964;10.540;2023-02-22T01:35:31;60.97;;;21.17;;
16101;SDS011;56411;52.964;10.540;2023-02-22T01:38:00;58.07;;;20.77;;
16101;SDS011;56411;52.964;10.540;2023-02-22T01:40:28;61.80;;;21.67;;
16101;SDS011;56411;52.964;10.540;2023-02-22T01:42:57;59.60;;;21.33;;
16101;SDS011;56411;52.964;10.540;2023-02-22T01:48:29;60.23;;;21.77;;
16101;SDS011;56411;52.964;10.540;2023-02-22T01:51:03;64.03;;;22.10;;
16101;SDS011;56411;52.964;10.540;2023-02-22T01:53:38;69.07;;;22.87;;
16101;SDS011;56411;52.964;10.540;2023-02-22T01:56:09;68.60;;;21.30;;
16101;SDS011;56411;52.964;10.540;2023-02-22T01:58:37;60.30;;;22.03;;
16101;SDS011;56411;52.964;10.540;2023-02-22T02:01:07;70.90;;;22.30;;
16101;SDS011;56411;52.964;10.540;2023-02-22T02:03:36;61.93;;;20.60;;
16101;SDS011;56411;52.964;10.540;2023-02-22T02:06:06;57.87;;;21.00;;
16101;SDS011;56411;52.964;10.540;2023-02-22T02:08:40;60.07;;;20.73;;
16101;SDS011;56411;52.964;10.540;2023-02-22T02:11:17;55.97;;;20.00;;
16101;SDS011;56411;52.964;10.540;2023-02-22T02:13:46;56.87;;;19.87;;
16101;SDS011;56411;52.964;10.540;2023-02-22T02:16:15;55.23;;;19.43;;
16101;SDS011;56411;52.964;10.540;2023-02-22T02:18:42;49.40;;;19.13;;
16101;SDS011;56411;52.964;10.540;2023-02-22T02:27:33;47.83;;;18.50;;
16101;SDS011;56411;52.964;10.540;2023-02-22T02:30:19;47.77;;;19.10;;
16101;SDS011;56411;52.964;10.540;2023-02-22T02:33:10;48.70;;;18.33;;
16101;SDS011;56411;52.964;10.540;2023-02-22T02:35:47;51.77;;;18.17;;
16101;SDS011;56411;52.964;10.540;2023-02-22T02:38:19;52.27;;;18.90;;
16101;SDS011;56411;52.964;10.540;2023-02-22T02:40:57;67.87;;;21.87;;
16101;SDS011;56411;52.964;10.540;2023-02-22T02:43:31;59.27;;;19.97;;
16101;SDS011;56411;52.964;10.540;2023-02-22T02:46:03;64.77;;;21.57;;
16101;SDS011;56411;52.964;10.540;2023-02-22T02:48:34;59.07;;;20.97;;
16101;SDS011;56411;52.964;10.540;2023-02-22T02:51:09;66.00;;;20.57;;
16101;SDS011;56411;52.964;10.540;2023-02-22T02:53:40;60.60;;;21.30;;
16101;SDS011;56411;52.964;10.540;2023-02-22T02:56:12;86.70;;;23.97;;
16101;SDS011;56411;52.964;10.540;2023-02-22T02:58:43;76.77;;;24.00;;
16101;SDS011;56411;52.964;10.540;2023-02-22T03:01:13;82.90;;;24.87;;
16101;SDS011;56411;52.964;10.540;2023-02-22T03:03:51;89.33;;;24.90;;
16101;SDS011;56411;52.964;10.540;2023-02-22T03:06:38;87.13;;;23.40;;
16101;SDS011;56411;52.964;10.540;2023-02-22T03:09:24;73.63;;;23.63;;
16101;SDS011;56411;52.964;10.540;2023-02-22T03:12:05;97.57;;;24.23;;
16101;SDS011;56411;52.964;10.540;2023-02-22T03:14:41;74.77;;;22.93;;
16101;SDS011;56411;52.964;10.540;2023-02-22T03:17:21;82.73;;;22.80;;
16101;SDS011;56411;52.964;10.540;2023-02-22T03:19:57;85.40;;;24.53;;
16101;SDS011;56411;52.964;10.540;2023-02-22T03:22:30;82.03;;;24.07;;
16101;SDS011;56411;52.964;10.540;2023-02-22T03:25:02;64.27;;;22.43;;
16101;SDS011;56411;52.964;10.540;2023-02-22T03:27:34;73.57;;;24.23;;
16101;SDS011;56411;52.964;10.540;2023-02-22T03:30:09;73.30;;;23.47;;
16101;SDS011;56411;52.964;10.540;2023-02-22T03:32:39;87.00;;;24.60;;
16101;SDS011;56411;52.964;10.540;2023-02-22T03:35:13;97.07;;;25.10;;
16101;SDS011;56411;52.964;10.540;2023-02-22T03:37:46;75.80;;;23.73;;
16101;SDS011;56411;52.964;10.540;2023-02-22T03:40:17;78.03;;;24.83;;
16101;SDS011;56411;52.964;10.540;2023-02-22T03:42:52;76.93;;;24.23;;
16101;SDS011;56411;52.964;10.540;2023-02-22T03:45:24;87.40;;;22.80;;
16101;SDS011;56411;52.964;10.540;2023-02-22T03:47:56;84.23;;;23.90;;
16101;SDS011;56411;52.964;10.540;2023-02-22T03:50:28;75.93;;;22.53;;
16101;SDS011;56411;52.964;10.540;2023-02-22T03:53:00;75.13;;;22.77;;
16101;SDS011;56411;52.964;10.540;2023-02-22T03:55:27;78.67;;;21.47;;
16101;SDS011;56411;52.964;10.540;2023-02-22T03:57:56;75.43;;;20.50;;
16101;SDS011;56411;52.964;10.540;2023-02-22T04:00:26;88.07;;;21.90;;
16101;SDS011;56411;52.964;10.540;2023-02-22T04:02:55;69.57;;;21.20;;
16101;SDS011;56411;52.964;10.540;2023-02-22T04:05:22;71.23;;;20.10;;
16101;SDS011;56411;52.964;10.540;2023-02-22T04:07:51;66.17;;;19.60;;
16101;SDS011;56411;52.964;10.540;2023-02-22T04:10:18;70.17;;;20.37;;
16101;SDS011;56411;52.964;10.540;2023-02-22T04:12:46;115.20;;;25.00;;
16101;SDS011;56411;52.964;10.540;2023-02-22T04:15:15;92.47;;;23.80;;
16101;SDS011;56411;52.964;10.540;2023-02-22T04:17:44;94.67;;;24.17;;
16101;SDS011;56411;52.964;10.540;2023-02-22T04:20:11;74.83;;;21.30;;
16101;SDS011;56411;52.964;10.540;2023-02-22T04:22:38;106.10;;;25.23;;
16101;SDS011;56411;52.964;10.540;2023-02-22T04:25:07;176.73;;;27.77;;
16101;SDS011;56411;52.964;10.540;2023-02-22T04:27:34;120.00;;;24.30;;
16101;SDS011;56411;52.964;10.540;2023-02-22T04:30:02;190.17;;;27.67;;
16101;SDS011;56411;52.964;10.540;2023-02-22T04:32:29;76.53;;;21.40;;
16101;SDS011;56411;52.964;10.540;2023-02-22T04:34:56;166.73;;;31.33;;
16101;SDS011;56411;52.964;10.540;2023-02-22T04:37:23;110.73;;;32.27;;
16101;SDS011;56411;52.964;10.540;2023-02-22T04:39:50;138.17;;;34.33;;
16101;SDS011;56411;52.964;10.540;2023-02-22T04:42:18;102.13;;;31.13;;
16101;SDS011;56411;52.964;10.540;2023-02-22T04:44:45;108.00;;;24.57;;
16101;SDS011;56411;52.964;10.540;2023-02-22T04:47:12;95.30;;;21.97;;
16101;SDS011;56411;52.964;10.540;2023-02-22T04:49:39;148.23;;;26.10;;
16101;SDS011;56411;52.964;10.540;2023-02-22T04:52:06;82.80;;;21.33;;
16101;SDS011;56411;52.964;10.540;2023-02-22T04:54:33;114.40;;;24.70;;
16101;SDS011;56411;52.964;10.540;2023-02-22T04:57:00;105.20;;;25.27;;
16101;SDS011;56411;52.964;10.540;2023-02-22T04:59:28;95.77;;;25.37;;
16101;SDS011;56411;52.964;10.540;2023-02-22T05:01:57;128.23;;;27.00;;
16101;SDS011;56411;52.964;10.540;2023-02-22T05:04:24;112.07;;;27.57;;
16101;SDS011;56411;52.964;10.540;2023-02-22T05:06:55;122.80;;;27.70;;
16101;SDS011;56411;52.964;10.540;2023-02-22T05:09:21;107.50;;;25.43;;
16101;SDS011;56411;52.964;10.540;2023-02-22T05:11:48;107.53;;;25.73;;
16101;SDS011;56411;52.964;10.540;2023-02-22T05:14:16;97.33;;;24.37;;
16101;SDS011;56411;52.964;10.540;2023-02-22T05:16:44;209.60;;;28.20;;
16101;SDS011;56411;52.964;10.540;2023-02-22T05:19:13;122.53;;;26.33;;
16101;SDS011;56411;52.964;10.540;2023-02-22T05:21:40;105.43;;;26.43;;
16101;SDS011;56411;52.964;10.540;2023-02-22T05:24:07;112.63;;;24.67;;
16101;SDS011;56411;52.964;10.540;2023-02-22T05:26:33;105.23;;;24.73;;
16101;SDS011;56411;52.964;10.540;2023-02-22T05:29:00;148.63;;;27.27;;
16101;SDS011;56411;52.964;10.540;2023-02-22T05:31:27;142.03;;;26.07;;
16101;SDS011;56411;52.964;10.540;2023-02-22T05:33:56;114.03;;;24.23;;
16101;SDS011;56411;52.964;10.540;2023-02-22T05:36:23;132.43;;;26.77;;
16101;SDS011;56411;52.964;10.540;2023-02-22T05:38:52;118.90;;;26.57;;
16101;SDS011;56411;52.964;10.540;2023-02-22T05:41:19;110.47;;;26.23;;
16101;SDS011;56411;52.964;10.540;2023-02-22T05:43:46;112.33;;;25.97;;
16101;SDS011;56411;52.964;10.540;2023-02-22T05:46:13;123.13;;;27.00;;
16101;SDS011;56411;52.964;10.540;2023-02-22T05:48:42;140.87;;;25.97;;
16101;SDS011;56411;52.964;10.540;2023-02-22T05:51:11;143.07;;;29.03;;
16101;SDS011;56411;52.964;10.540;2023-02-22T05:53:38;123.57;;;28.50;;
16101;SDS011;56411;52.964;10.540;2023-02-22T05:56:06;127.47;;;29.73;;
16101;SDS011;56411;52.964;10.540;2023-02-22T05:58:34;150.67;;;28.27;;
16101;SDS011;56411;52.964;10.540;2023-02-22T06:01:01;138.60;;;29.33;;
16101;SDS011;56411;52.964;10.540;2023-02-22T06:03:28;170.17;;;31.10;;
16101;SDS011;56411;52.964;10.540;2023-02-22T06:05:55;153.40;;;30.97;;
16101;SDS011;56411;52.964;10.540;2023-02-22T06:08:23;135.43;;;31.70;;
16101;SDS011;56411;52.964;10.540;2023-02-22T06:10:50;120.83;;;29.37;;
16101;SDS011;56411;52.964;10.540;2023-02-22T06:13:18;158.83;;;30.00;;
16101;SDS011;56411;52.964;10.540;2023-02-22T06:15:45;176.70;;;31.77;;
16101;SDS011;56411;52.964;10.540;2023-02-22T06:18:12;165.97;;;31.77;;
16101;SDS011;56411;52.964;10.540;2023-02-22T06:20:39;139.70;;;32.07;;
16101;SDS011;56411;52.964;10.540;2023-02-22T06:23:06;170.10;;;34.27;;
16101;SDS011;56411;52.964;10.540;2023-02-22T06:25:35;191.13;;;34.77;;
16101;SDS011;56411;52.964;10.540;2023-02-22T06:28:02;147.13;;;33.07;;
16101;SDS011;56411;52.964;10.540;2023-02-22T06:33:52;161.57;;;34.33;;
16101;SDS011;56411;52.964;10.540;2023-02-22T06:36:19;190.90;;;38.57;;
16101;SDS011;56411;52.964;10.540;2023-02-22T06:38:46;144.87;;;34.63;;
16101;SDS011;56411;52.964;10.540;2023-02-22T06:41:14;138.03;;;35.37;;
16101;SDS011;56411;52.964;10.540;2023-02-22T06:43:41;150.40;;;36.83;;
16101;SDS011;56411;52.964;10.540;2023-02-22T06:46:08;150.03;;;36.33;;
16101;SDS011;56411;52.964;10.540;2023-02-22T06:48:36;150.37;;;35.77;;
16101;SDS011;56411;52.964;10.540;2023-02-22T06:51:04;138.17;;;35.53;;
16101;SDS011;56411;52.964;10.540;2023-02-22T06:53:32;143.43;;;36.83;;
16101;SDS011;56411;52.964;10.540;2023-02-22T06:55:59;149.13;;;37.33;;
16101;SDS011;56411;52.964;10.540;2023-02-22T06:58:27;149.30;;;36.77;;
16101;SDS011;56411;52.964;10.540;2023-02-22T07:00:54;153.07;;;38.23;;
16101;SDS011;56411;52.964;10.540;2023-02-22T07:03:21;140.47;;;37.27;;
16101;SDS011;56411;52.964;10.540;2023-02-22T07:05:48;137.40;;;35.03;;
16101;SDS011;56411;52.964;10.540;2023-02-22T07:08:15;143.83;;;36.93;;
16101;SDS011;56411;52.964;10.540;2023-02-22T07:10:42;146.67;;;38.37;;
16101;SDS011;56411;52.964;10.540;2023-02-22T07:13:09;134.07;;;36.97;;
16101;SDS011;56411;52.964;10.540;2023-02-22T07:15:37;145.10;;;36.47;;
16101;SDS011;56411;52.964;10.540;2023-02-22T07:18:04;121.60;;;34.50;;
16101;SDS011;56411;52.964;10.540;2023-02-22T07:20:32;127.43;;;34.33;;
16101;SDS011;56411;52.964;10.540;2023-02-22T07:22:59;114.43;;;34.50;;
16101;SDS011;56411;52.964;10.540;2023-02-22T07:25:26;122.33;;;34.63;;
16101;SDS011;56411;52.964;10.540;2023-02-22T07:27:53;123.53;;;36.27;;
16101;SDS011;56411;52.964;10.540;2023-02-22T07:30:21;120.13;;;34.23;;
16101;SDS011;56411;52.964;10.540;2023-02-22T07:32:52;118.93;;;35.00;;
16101;SDS011;56411;52.964;10.540;2023-02-22T07:35:20;118.23;;;33.83;;
16101;SDS011;56411;52.964;10.540;2023-02-22T07:37:48;110.87;;;33.13;;
16101;SDS011;56411;52.964;10.540;2023-02-22T07:40:16;109.30;;;35.00;;
16101;SDS011;56411;52.964;10.540;2023-02-22T07:42:53;112.13;;;33.33;;
16101;SDS011;56411;52.964;10.540;2023-02-22T07:45:22;114.53;;;33.93;;
16101;SDS011;56411;52.964;10.540;2023-02-22T07:47:52;112.93;;;33.07;;
16101;SDS011;56411;52.964;10.540;2023-02-22T07:50:20;101.53;;;32.27;;
16101;SDS011;56411;52.964;10.540;2023-02-22T07:52:49;99.70;;;32.23;;
16101;SDS011;56411;52.964;10.540;2023-02-22T07:55:18;98.80;;;33.27;;
16101;SDS011;56411;52.964;10.540;2023-02-22T07:57:47;102.40;;;31.97;;
16101;SDS011;56411;52.964;10.540;2023-02-22T08:00:15;96.80;;;31.47;;
16101;SDS011;56411;52.964;10.540;2023-02-22T08:02:47;89.33;;;30.83;;
16101;SDS011;56411;52.964;10.540;2023-02-22T08:05:16;85.97;;;31.70;;
16101;SDS011;56411;52.964;10.540;2023-02-22T08:07:43;91.10;;;31.67;;
16101;SDS011;56411;52.964;10.540;2023-02-22T08:10:10;88.43;;;31.07;;
16101;SDS011;56411;52.964;10.540;2023-02-22T08:12:40;93.93;;;32.47;;
16101;SDS011;56411;52.964;10.540;2023-02-22T08:15:08;78.53;;;32.10;;
16101;SDS011;56411;52.964;10.540;2023-02-22T08:17:41;81.97;;;30.60;;
16101;SDS011;56411;52.964;10.540;2023-02-22T08:20:09;87.93;;;31.70;;
16101;SDS011;56411;52.964;10.540;2023-02-22T08:22:37;79.93;;;30.10;;
16101;SDS011;56411;52.964;10.540;2023-02-22T08:25:05;81.40;;;30.47;;
16101;SDS011;56411;52.964;10.540;2023-02-22T08:27:32;84.90;;;30.77;;
16101;SDS011;56411;52.964;10.540;2023-02-22T08:30:00;79.20;;;29.90;;
16101;SDS011;56411;52.964;10.540;2023-02-22T08:32:27;76.03;;;30.90;;
16101;SDS011;56411;52.964;10.540;2023-02-22T08:34:54;83.33;;;31.20;;
16101;SDS011;56411;52.964;10.540;2023-02-22T08:37:21;76.53;;;30.77;;
16101;SDS011;56411;52.964;10.540;2023-02-22T08:39:50;64.80;;;28.77;;
16101;SDS011;56411;52.964;10.540;2023-02-22T08:42:20;66.20;;;28.47;;
16101;SDS011;56411;52.964;10.540;2023-02-22T08:44:47;68.80;;;28.63;;
16101;SDS011;56411;52.964;10.540;2023-02-22T08:47:14;67.07;;;28.10;;
16101;SDS011;56411;52.964;10.540;2023-02-22T08:49:41;63.37;;;27.73;;
16101;SDS011;56411;52.964;10.540;2023-02-22T08:52:08;61.80;;;27.45;;
16101;SDS011;56411;52.964;10.540;2023-02-22T08:54:35;61.90;;;27.63;;
16101;SDS011;56411;52.964;10.540;2023-02-22T08:57:03;63.40;;;27.63;;
16101;SDS011;56411;52.964;10.540;2023-02-22T08:59:30;62.43;;;27.43;;
16101;SDS011;56411;52.964;10.540;2023-02-22T09:01:57;59.60;;;27.03;;
16101;SDS011;56411;52.964;10.540;2023-02-22T09:04:24;61.40;;;29.10;;
16101;SDS011;56411;52.964;10.540;2023-02-22T09:06:51;64.17;;;29.90;;
16101;SDS011;56411;52.964;10.540;2023-02-22T09:09:18;62.50;;;29.80;;
16101;SDS011;56411;52.964;10.540;2023-02-22T09:11:46;63.80;;;28.73;;
16101;SDS011;56411;52.964;10.540;2023-02-22T09:14:15;60.00;;;29.07;;
16101;SDS011;56411;52.964;10.540;2023-02-22T09:16:42;65.07;;;30.30;;
16101;SDS011;56411;52.964;10.540;2023-02-22T09:19:10;64.57;;;29.90;;
16101;SDS011;56411;52.964;10.540;2023-02-22T09:21:37;56.07;;;29.03;;
16101;SDS011;56411;52.964;10.540;2023-02-22T09:24:05;60.23;;;28.90;;
16101;SDS011;56411;52.964;10.540;2023-02-22T09:26:33;58.47;;;29.10;;
16101;SDS011;56411;52.964;10.540;2023-02-22T09:29:03;53.20;;;26.53;;
16101;SDS011;56411;52.964;10.540;2023-02-22T09:31:35;56.77;;;27.03;;
16101;SDS011;56411;52.964;10.540;2023-02-22T09:34:03;51.95;;;25.05;;
16101;SDS011;56411;52.964;10.540;2023-02-22T09:36:37;55.90;;;27.15;;
16101;SDS011;56411;52.964;10.540;2023-02-22T09:39:05;50.67;;;24.90;;
16101;SDS011;56411;52.964;10.540;2023-02-22T09:41:34;49.70;;;25.33;;
16101;SDS011;56411;52.964;10.540;2023-02-22T09:44:08;49.67;;;25.00;;
16101;SDS011;56411;52.964;10.540;2023-02-22T09:46:44;49.78;;;23.48;;
16101;SDS011;56411;52.964;10.540;2023-02-22T09:49:16;52.53;;;25.17;;
16101;SDS011;56411;52.964;10.540;2023-02-22T09:51:46;48.53;;;24.60;;
16101;SDS011;56411;52.964;10.540;2023-02-22T09:54:18;51.60;;;25.00;;
16101;SDS011;56411;52.964;10.540;2023-02-22T09:56:49;44.10;;;23.27;;
16101;SDS011;56411;52.964;10.540;2023-02-22T09:59:20;47.03;;;23.20;;
16101;SDS011;56411;52.964;10.540;2023-02-22T10:01:55;47.80;;;23.65;;
16101;SDS011;56411;52.964;10.540;2023-02-22T10:04:35;47.47;;;23.92;;
16101;SDS011;56411;52.964;10.540;2023-02-22T10:07:14;51.00;;;23.00;;
16101;SDS011;56411;52.964;10.540;2023-02-22T10:09:46;42.75;;;21.30;;
16101;SDS011;56411;52.964;10.540;2023-02-22T10:12:17;40.25;;;20.05;;
16101;SDS011;56411;52.964;10.540;2023-02-22T10:15:09;38.25;;;19.33;;
16101;SDS011;56411;52.964;10.540;2023-02-22T10:17:56;37.00;;;18.67;;
16101;SDS011;56411;52.964;10.540;2023-02-22T10:20:34;34.05;;;17.45;;
16101;SDS011;56411;52.964;10.540;2023-02-22T10:23:15;35.30;;;16.98;;
16101;SDS011;56411;52.964;10.540;2023-02-22T10:25:50;36.50;;;18.17;;
16101;SDS011;56411;52.964;10.540;2023-02-22T10:28:22;33.20;;;16.52;;
16101;SDS011;56411;52.964;10.540;2023-02-22T10:30:56;29.45;;;14.88;;
16101;SDS011;56411;52.964;10.540;2023-02-22T10:33:29;25.40;;;13.55;;
16101;SDS011;56411;52.964;10.540;2023-02-22T10:35:59;22.23;;;11.27;;
16101;SDS011;56411;52.964;10.540;2023-02-22T10:38:27;21.85;;;10.23;;
16101;SDS011;56411;52.964;10.540;2023-02-22T10:40:56;21.15;;;9.68;;
16101;SDS011;56411;52.964;10.540;2023-02-22T10:43:27;19.45;;;9.40;;
16101;SDS011;56411;52.964;10.540;2023-02-22T10:45:55;20.15;;;9.07;;
16101;SDS011;56411;52.964;10.540;2023-02-22T10:48:25;16.45;;;8.23;;
16101;SDS011;56411;52.964;10.540;2023-02-22T10:50:58;17.50;;;8.15;;
16101;SDS011;56411;52.964;10.540;2023-02-22T10:53:27;17.92;;;8.15;;
16101;SDS011;56411;52.964;10.540;2023-02-22T10:56:04;18.38;;;8.48;;
16101;SDS011;56411;52.964;10.540;2023-02-22T10:58:48;18.40;;;8.52;;
16101;SDS011;56411;52.964;10.540;2023-02-22T11:01:18;18.50;;;7.60;;
16101;SDS011;56411;52.964;10.540;2023-02-22T11:03:54;16.77;;;8.25;;
16101;SDS011;56411;52.964;10.540;2023-02-22T11:06:29;14.93;;;6.88;;
16101;SDS011;56411;52.964;10.540;2023-02-22T11:09:07;16.63;;;7.28;;
16101;SDS011;56411;52.964;10.540;2023-02-22T11:11:40;15.18;;;6.25;;
16101;SDS011;56411;52.964;10.540;2023-02-22T11:14:09;14.95;;;6.57;;
16101;SDS011;56411;52.964;10.540;2023-02-22T11:16:38;13.63;;;6.68;;
16101;SDS011;56411;52.964;10.540;2023-02-22T11:19:10;13.63;;;6.07;;
16101;SDS011;56411;52.964;10.540;2023-02-22T11:21:46;14.80;;;6.25;;
16101;SDS011;56411;52.964;10.540;2023-02-22T11:24:17;15.32;;;6.43;;
16101;SDS011;56411;52.964;10.540;2023-02-22T11:26:49;12.82;;;6.20;;
16101;SDS011;56411;52.964;10.540;2023-02-22T11:29:19;13.65;;;6.35;;
16101;SDS011;56411;52.964;10.540;2023-02-22T11:31:50;14.57;;;7.13;;
16101;SDS011;56411;52.964;10.540;2023-02-22T11:34:31;15.35;;;7.40;;
16101;SDS011;56411;52.964;10.540;2023-02-22T11:37:18;15.07;;;7.13;;
16101;SDS011;56411;52.964;10.540;2023-02-22T11:40:04;16.42;;;7.57;;
16101;SDS011;56411;52.964;10.540;2023-02-22T11:42:41;13.85;;;7.30;;
16101;SDS011;56411;52.964;10.540;2023-02-22T11:45:10;14.05;;;7.20;;
16101;SDS011;56411;52.964;10.540;2023-02-22T11:47:45;14.30;;;7.32;;
16101;SDS011;56411;52.964;10.540;2023-02-22T11:50:27;14.43;;;7.57;;
16101;SDS011;56411;52.964;10.540;2023-02-22T11:55:52;15.52;;;7.75;;
16101;SDS011;56411;52.964;10.540;2023-02-22T11:58:31;15.95;;;8.15;;
16101;SDS011;56411;52.964;10.540;2023-02-22T12:01:07;16.17;;;8.20;;
16101;SDS011;56411;52.964;10.540;2023-02-22T12:04:05;17.23;;;8.50;;
16101;SDS011;56411;52.964;10.540;2023-02-22T12:07:07;16.95;;;8.30;;
16101;SDS011;56411;52.964;10.540;2023-02-22T12:09:58;16.05;;;8.57;;
16101;SDS011;56411;52.964;10.540;2023-02-22T12:12:32;16.00;;;8.57;;
16101;SDS011;56411;52.964;10.540;2023-02-22T12:15:07;16.40;;;8.02;;
16101;SDS011;56411;52.964;10.540;2023-02-22T12:17:43;17.75;;;9.15;;
16101;SDS011;56411;52.964;10.540;2023-02-22T12:20:17;17.42;;;8.68;;
16101;SDS011;56411;52.964;10.540;2023-02-22T12:22:52;17.95;;;9.15;;
16101;SDS011;56411;52.964;10.540;2023-02-22T12:25:27;18.30;;;9.70;;
16101;SDS011;56411;52.964;10.540;2023-02-22T12:27:58;16.70;;;8.48;;
16101;SDS011;56411;52.964;10.540;2023-02-22T12:30:36;16.02;;;8.93;;
16101;SDS011;56411;52.964;10.540;2023-02-22T12:33:10;18.70;;;9.70;;
16101;SDS011;56411;52.964;10.540;2023-02-22T12:35:41;18.67;;;9.77;;
16101;SDS011;56411;52.964;10.540;2023-02-22T12:38:20;17.95;;;10.00;;
16101;SDS011;56411;52.964;10.540;2023-02-22T12:40:59;20.45;;;9.73;;
16101;SDS011;56411;52.964;10.540;2023-02-22T12:43:35;21.15;;;10.45;;
16101;SDS011;56411;52.964;10.540;2023-02-22T12:46:09;18.30;;;9.40;;
16101;SDS011;56411;52.964;10.540;2023-02-22T12:48:43;19.17;;;9.90;;
16101;SDS011;56411;52.964;10.540;2023-02-22T12:51:22;17.35;;;9.35;;
16101;SDS011;56411;52.964;10.540;2023-02-22T12:53:58;20.52;;;10.23;;
16101;SDS011;56411;52.964;10.540;2023-02-22T12:56:35;19.33;;;10.60;;
16101;SDS011;56411;52.964;10.540;2023-02-22T12:59:08;19.38;;;10.40;;
16101;SDS011;56411;52.964;10.540;2023-02-22T13:01:40;21.00;;;10.93;;
16101;SDS011;56411;52.964;10.540;2023-02-22T13:04:09;20.88;;;10.38;;
16101;SDS011;56411;52.964;10.540;2023-02-22T13:06:41;21.42;;;11.10;;
16101;SDS011;56411;52.964;10.540;2023-02-22T13:09:19;21.25;;;12.20;;
16101;SDS011;56411;52.964;10.540;2023-02-22T13:12:04;22.20;;;12.02;;
16101;SDS011;56411;52.964;10.540;2023-02-22T13:14:37;21.73;;;11.95;;
16101;SDS011;56411;52.964;10.540;2023-02-22T13:17:17;22.27;;;12.52;;
16101;SDS011;56411;52.964;10.540;2023-02-22T13:19:52;24.15;;;13.55;;
16101;SDS011;56411;52.964;10.540;2023-02-22T13:22:26;24.05;;;13.38;;
16101;SDS011;56411;52.964;10.540;2023-02-22T13:25:01;21.85;;;13.18;;
16101;SDS011;56411;52.964;10.540;2023-02-22T13:27:39;25.70;;;14.38;;
16101;SDS011;56411;52.964;10.540;2023-02-22T13:30:13;25.27;;;13.27;;
16101;SDS011;56411;52.964;10.540;2023-02-22T13:32:50;25.80;;;13.68;;
16101;SDS011;56411;52.964;10.540;2023-02-22T13:35:36;24.25;;;13.40;;
16101;SDS011;56411;52.964;10.540;2023-02-22T13:38:21;25.20;;;14.02;;
16101;SDS011;56411;52.964;10.540;2023-02-22T13:41:14;25.20;;;14.05;;
16101;SDS011;56411;52.964;10.540;2023-02-22T13:44:14;27.30;;;14.25;;
16101;SDS011;56411;52.964;10.540;2023-02-22T13:47:07;25.58;;;14.30;;
16101;SDS011;56411;52.964;10.540;2023-02-22T13:50:02;25.40;;;13.75;;
16101;SDS011;56411;52.964;10.540;2023-02-22T13:52:50;24.33;;;14.20;;
16101;SDS011;56411;52.964;10.540;2023-02-22T13:55:21;24.25;;;13.80;;
16101;SDS011;56411;52.964;10.540;2023-02-22T13:57:58;25.83;;;14.73;;
16101;SDS011;56411;52.964;10.540;2023-02-22T14:00:40;26.77;;;14.20;;
16101;SDS011;56411;52.964;10.540;2023-02-22T14:06:04;27.35;;;14.55;;
16101;SDS011;56411;52.964;10.540;2023-02-22T14:08:41;25.08;;;14.15;;
16101;SDS011;56411;52.964;10.540;2023-02-22T14:14:10;25.55;;;14.00;;
16101;SDS011;56411;52.964;10.540;2023-02-22T14:16:42;24.88;;;13.45;;
16101;SDS011;56411;52.964;10.540;2023-02-22T14:19:13;25.85;;;14.20;;
16101;SDS011;56411;52.964;10.540;2023-02-22T14:21:53;25.25;;;14.27;;
16101;SDS011;56411;52.964;10.540;2023-02-22T14:24:22;24.05;;;13.95;;
16101;SDS011;56411;52.964;10.540;2023-02-22T14:26:53;27.85;;;13.82;;
16101;SDS011;56411;52.964;10.540;2023-02-22T14:29:22;26.65;;;14.07;;
16101;SDS011;56411;52.964;10.540;2023-02-22T14:32:05;24.52;;;13.57;;
16101;SDS011;56411;52.964;10.540;2023-02-22T14:34:39;23.90;;;13.13;;
16101;SDS011;56411;52.964;10.540;2023-02-22T14:37:14;26.17;;;13.63;;
16101;SDS011;56411;52.964;10.540;2023-02-22T14:39:44;26.88;;;14.95;;
16101;SDS011;56411;52.964;10.540;2023-02-22T14:42:15;23.35;;;13.02;;
16101;SDS011;56411;52.964;10.540;2023-02-22T14:44:48;26.15;;;13.43;;
16101;SDS011;56411;52.964;10.540;2023-02-22T14:47:21;22.23;;;12.18;;
16101;SDS011;56411;52.964;10.540;2023-02-22T14:49:54;22.38;;;12.15;;
16101;SDS011;56411;52.964;10.540;2023-02-22T14:52:28;23.52;;;12.63;;
16101;SDS011;56411;52.964;10.540;2023-02-22T14:55:01;24.35;;;12.93;;